Terminal Aerodrome Forecast
Issued by NWS Sioux Falls, SD

Home | Current Version | Previous Version | Text Only | Print | Product List | Glossary Off
Versions: 1 2 3 4 5 6 7 8 9 10 11 12

823
FTUS43 KFSD 161724
TAFFSD
TAF
KFSD 161724Z 1618/1718 20014G22KT P6SM FEW250
     FM162300 21009KT P6SM FEW250
     FM170200 20004KT P6SM FEW250
     FM171700 22008KT P6SM SKC=

USA.gov is the U.S. government's official web portal to all federal, state and local government web resources and services.